createdAt,value
2017-09-13T00:01:08.669Z,99.99
2017-09-13T00:02:18.599Z,99.99
2017-09-13T00:03:29.144Z,99.99
2017-09-13T00:04:39.087Z,99.99
2017-09-13T00:05:49.332Z,99.99
2017-09-13T00:06:58.952Z,99.99
2017-09-13T00:08:08.890Z,99.99
2017-09-13T00:09:19.123Z,99.99
2017-09-13T00:10:29.378Z,99.99
2017-09-13T00:11:39.651Z,99.99
2017-09-13T00:12:49.583Z,99.99
2017-09-13T00:13:59.196Z,99.99
2017-09-13T00:15:09.794Z,99.99
2017-09-13T00:16:19.747Z,99.99
2017-09-13T00:17:30.015Z,99.99
2017-09-13T00:18:40.267Z,99.99
2017-09-13T00:19:50.520Z,99.99
2017-09-13T00:21:01.125Z,99.99
2017-09-13T00:22:11.377Z,99.99
2017-09-13T00:23:21.624Z,99.99
2017-09-13T00:24:31.866Z,99.99
2017-09-13T00:25:41.493Z,99.99
2017-09-13T00:26:51.784Z,99.99
2017-09-13T00:28:01.728Z,99.99
2017-09-13T00:29:11.971Z,99.99
2017-09-13T00:30:22.216Z,99.99
2017-09-13T00:31:32.498Z,99.99
2017-09-13T00:32:43.093Z,99.99
2017-09-13T00:33:53.344Z,99.99
2017-09-13T00:35:03.592Z,99.99
2017-09-13T00:36:13.520Z,99.99
2017-09-13T00:37:23.764Z,99.99
2017-09-13T00:38:34.375Z,99.99
2017-09-13T00:39:43.994Z,99.99
2017-09-13T00:40:54.233Z,99.99
2017-09-13T00:42:04.482Z,99.99
2017-09-13T00:43:14.732Z,99.99
2017-09-13T00:44:25.012Z,99.99
2017-09-13T00:45:35.264Z,99.99
2017-09-13T00:46:45.510Z,99.99
2017-09-13T00:47:55.762Z,99.99
2017-09-13T00:49:06.011Z,99.99
2017-09-13T00:50:16.290Z,99.99
2017-09-13T00:51:26.543Z,99.99
2017-09-13T00:52:36.787Z,99.99
2017-09-13T00:53:46.730Z,99.99
2017-09-13T00:54:56.978Z,99.99
2017-09-13T00:56:07.208Z,99.99
2017-09-13T00:57:17.153Z,99.99
2017-09-13T00:58:27.406Z,99.99
2017-09-13T00:59:37.661Z,99.99
2017-09-13T01:00:47.909Z,99.99
2017-09-13T01:01:58.154Z,99.99
2017-09-13T01:03:08.395Z,99.99
2017-09-13T01:04:18.642Z,99.99
2017-09-13T01:05:28.885Z,99.99
2017-09-13T01:06:39.139Z,99.99
2017-09-13T01:07:49.417Z,99.99
2017-09-13T01:08:59.345Z,99.99
2017-09-13T01:10:09.602Z,99.99
2017-09-13T01:11:19.857Z,99.99
2017-09-13T01:12:29.793Z,99.99
2017-09-13T01:13:40.350Z,99.99
2017-09-13T01:14:50.594Z,99.99
2017-09-13T01:16:00.527Z,99.99
2017-09-13T01:17:10.778Z,99.99
2017-09-13T01:18:20.706Z,99.99
2017-09-13T01:19:30.933Z,99.99
2017-09-13T01:20:40.867Z,99.99
2017-09-13T01:21:50.802Z,99.99
2017-09-13T01:23:00.729Z,99.99
2017-09-13T01:24:10.756Z,99.99
2017-09-13T01:25:21.041Z,99.99
2017-09-13T01:26:31.283Z,99.99
2017-09-13T01:27:41.205Z,99.99
2017-09-13T01:28:51.142Z,99.99
2017-09-13T01:30:01.076Z,99.99
2017-09-13T01:31:11.669Z,99.99
2017-09-13T01:32:21.919Z,99.99
2017-09-13T01:33:31.869Z,99.99
2017-09-13T01:34:41.800Z,99.99
2017-09-13T01:35:52.055Z,99.99
2017-09-13T01:37:02.610Z,99.99
2017-09-13T01:38:12.551Z,99.99
2017-09-13T01:39:22.473Z,99.99
2017-09-13T01:40:32.741Z,99.99
2017-09-13T01:41:42.984Z,99.99
2017-09-13T01:42:53.529Z,99.99
2017-09-13T01:44:03.454Z,99.99
2017-09-13T01:45:13.395Z,99.99
2017-09-13T01:46:23.327Z,99.99
2017-09-13T01:47:33.584Z,99.99
2017-09-13T01:48:44.133Z,99.99
2017-09-13T01:49:54.064Z,99.99
2017-09-13T01:51:03.680Z,99.99
2017-09-13T01:52:13.607Z,99.99
2017-09-13T01:53:23.583Z,99.99
2017-09-13T01:54:34.198Z,99.99
2017-09-13T01:55:44.438Z,99.99
2017-09-13T01:56:54.700Z,99.99
2017-09-13T01:58:04.951Z,99.99
2017-09-13T01:59:14.882Z,99.99
2017-09-13T02:00:25.483Z,99.99
2017-09-13T02:01:35.411Z,99.99
2017-09-13T02:02:45.348Z,99.99
2017-09-13T02:03:54.962Z,99.99
2017-09-13T02:05:05.209Z,99.99
2017-09-13T02:06:15.505Z,99.99
2017-09-13T02:07:25.748Z,99.99
2017-09-13T02:08:35.993Z,99.99
2017-09-13T02:09:46.241Z,99.99
2017-09-13T02:10:56.170Z,99.99
2017-09-13T02:12:06.710Z,99.99
2017-09-13T02:13:16.962Z,99.99
2017-09-13T02:14:27.215Z,99.99
2017-09-13T02:15:37.146Z,99.99
2017-09-13T02:16:47.385Z,99.99
2017-09-13T02:17:57.680Z,99.99
2017-09-13T02:19:07.940Z,99.99
2017-09-13T02:20:18.216Z,99.99
2017-09-13T02:21:28.180Z,99.99
2017-09-13T02:22:38.430Z,99.99
2017-09-13T02:23:48.981Z,99.99
2017-09-13T02:24:59.249Z,99.99
2017-09-13T02:26:09.500Z,99.99
2017-09-13T02:27:19.439Z,99.99
2017-09-13T02:28:29.685Z,99.99
2017-09-13T02:29:40.287Z,99.99
2017-09-13T02:30:50.539Z,99.99
2017-09-13T02:32:00.811Z,99.99
2017-09-13T02:33:11.052Z,99.99
2017-09-13T02:34:21.000Z,99.99
2017-09-13T02:35:31.602Z,99.99
2017-09-13T02:36:41.862Z,99.99
2017-09-13T02:37:52.121Z,99.99
2017-09-13T02:39:02.385Z,99.99
2017-09-13T02:40:12.636Z,99.99
2017-09-13T02:41:22.871Z,99.99
2017-09-13T02:42:32.480Z,99.99
2017-09-13T02:43:42.727Z,99.99
2017-09-13T02:44:52.966Z,99.99
2017-09-13T02:46:02.912Z,99.99
2017-09-13T02:47:12.889Z,99.99
2017-09-13T02:48:23.173Z,99.99
2017-09-13T02:49:33.443Z,99.99
2017-09-13T02:50:43.683Z,99.99
2017-09-13T02:51:53.946Z,99.99
2017-09-13T02:53:04.541Z,99.99
2017-09-13T02:54:14.828Z,99.99
2017-09-13T02:55:25.116Z,99.99
2017-09-13T02:56:35.060Z,99.99
2017-09-13T02:57:45.303Z,99.99
2017-09-13T02:58:55.616Z,99.99
2017-09-13T03:00:05.533Z,99.99
2017-09-13T03:01:15.466Z,99.99
2017-09-13T03:02:25.717Z,99.99
2017-09-13T03:03:35.966Z,99.99
2017-09-13T03:04:46.569Z,99.99
2017-09-13T03:05:56.501Z,99.99
2017-09-13T03:07:06.753Z,99.99
2017-09-13T03:08:16.995Z,99.99
2017-09-13T03:09:26.931Z,99.99
2017-09-13T03:10:37.158Z,99.99
2017-09-13T03:11:47.402Z,99.99
2017-09-13T03:12:57.659Z,99.99
2017-09-13T03:14:07.594Z,99.99
2017-09-13T03:15:17.843Z,99.99
2017-09-13T03:16:28.447Z,99.99
2017-09-13T03:17:38.376Z,99.99
2017-09-13T03:18:47.994Z,99.99
2017-09-13T03:19:57.612Z,99.99
2017-09-13T03:21:07.555Z,99.99
2017-09-13T03:22:18.159Z,99.99
2017-09-13T03:23:28.419Z,99.99
2017-09-13T03:24:38.663Z,99.99
2017-09-13T03:25:48.599Z,99.99
2017-09-13T03:26:58.840Z,99.99
2017-09-13T03:28:09.443Z,99.99
2017-09-13T03:29:19.060Z,99.99
2017-09-13T03:30:28.673Z,99.99
2017-09-13T03:31:38.605Z,99.99
2017-09-13T03:32:48.879Z,99.99
2017-09-13T03:33:59.477Z,99.99
2017-09-13T03:35:09.760Z,99.99
2017-09-13T03:36:20.007Z,99.99
2017-09-13T03:37:29.942Z,99.99
2017-09-13T03:38:39.877Z,99.99
2017-09-13T03:39:50.108Z,99.99
2017-09-13T03:41:00.394Z,99.99
2017-09-13T03:42:10.047Z,99.99
2017-09-13T03:43:19.979Z,99.99
2017-09-13T03:44:30.253Z,99.99
2017-09-13T03:45:40.872Z,99.99
2017-09-13T03:46:50.481Z,99.99
2017-09-13T03:48:00.410Z,99.99
2017-09-13T03:49:10.666Z,99.99
2017-09-13T03:50:20.285Z,99.99
2017-09-13T03:51:30.832Z,99.99
2017-09-13T03:52:41.090Z,99.99
2017-09-13T03:53:51.346Z,99.99
2017-09-13T03:55:01.594Z,99.99
2017-09-13T03:56:11.527Z,99.99
2017-09-13T03:57:22.075Z,99.99
2017-09-13T03:58:32.320Z,99.99
2017-09-13T03:59:42.568Z,99.99
2017-09-13T04:00:52.812Z,99.99
2017-09-13T04:02:03.068Z,99.99
2017-09-13T04:03:13.293Z,99.99
2017-09-13T04:04:23.546Z,99.99
2017-09-13T04:05:33.788Z,99.99
2017-09-13T04:06:43.738Z,99.99
2017-09-13T04:07:53.990Z,99.99
2017-09-13T04:09:04.587Z,99.99
2017-09-13T04:10:14.528Z,99.99
2017-09-13T04:11:24.467Z,99.99
2017-09-13T04:12:34.720Z,99.99
2017-09-13T04:13:44.647Z,99.99
2017-09-13T04:14:55.240Z,99.99
2017-09-13T04:16:05.492Z,99.99
2017-09-13T04:17:15.744Z,99.99
2017-09-13T04:18:25.682Z,99.99
2017-09-13T04:19:35.939Z,99.99
2017-09-13T04:20:46.504Z,99.99
2017-09-13T04:21:56.767Z,99.99
2017-09-13T04:23:06.697Z,99.99
2017-09-13T04:24:16.976Z,99.99
2017-09-13T04:25:26.913Z,99.99
2017-09-13T04:26:37.508Z,99.99
2017-09-13T04:27:47.755Z,99.99
2017-09-13T04:28:58.016Z,99.99
2017-09-13T04:30:08.273Z,99.99
2017-09-13T04:31:18.205Z,99.99
2017-09-13T04:32:28.131Z,99.99
2017-09-13T04:33:38.390Z,99.99
2017-09-13T04:34:48.335Z,99.99
2017-09-13T04:35:58.280Z,99.99
2017-09-13T04:37:08.535Z,99.99
2017-09-13T04:38:18.762Z,99.99
2017-09-13T04:39:29.019Z,99.99
2017-09-13T04:40:39.271Z,99.99
2017-09-13T04:41:49.202Z,99.99
2017-09-13T04:42:59.459Z,99.99
2017-09-13T04:44:10.032Z,99.99
2017-09-13T04:45:20.302Z,99.99
2017-09-13T04:46:30.553Z,99.99
2017-09-13T04:47:40.802Z,99.99
2017-09-13T04:48:50.731Z,99.99
2017-09-13T04:50:01.017Z,99.99
2017-09-13T04:51:10.945Z,99.99
2017-09-13T04:52:20.891Z,99.99
2017-09-13T04:53:31.145Z,99.99
2017-09-13T04:54:41.401Z,99.99
2017-09-13T04:55:52.020Z,99.99
2017-09-13T04:57:01.953Z,99.99
2017-09-13T04:58:12.219Z,99.99
2017-09-13T04:59:22.155Z,99.99
2017-09-13T05:00:32.396Z,99.99
2017-09-13T05:01:42.962Z,99.99
2017-09-13T05:02:53.507Z,99.99
2017-09-13T05:04:03.768Z,99.99
2017-09-13T05:05:13.705Z,99.99
2017-09-13T05:06:23.973Z,99.99
2017-09-13T05:07:34.526Z,99.99
2017-09-13T05:08:44.474Z,99.99
2017-09-13T05:09:54.414Z,99.99
2017-09-13T05:11:03.720Z,99.99
2017-09-13T05:12:14.011Z,99.99
2017-09-13T05:13:24.268Z,99.99
2017-09-13T05:14:34.524Z,99.99
2017-09-13T05:15:44.491Z,99.99
2017-09-13T05:16:54.741Z,99.99
2017-09-13T05:18:04.672Z,99.99
2017-09-13T05:19:14.920Z,99.99
2017-09-13T05:20:25.171Z,99.99
2017-09-13T05:21:35.421Z,99.99
2017-09-13T05:22:45.044Z,99.99
2017-09-13T05:23:55.338Z,99.99
2017-09-13T05:25:06.005Z,99.99
2017-09-13T05:26:16.256Z,99.99
2017-09-13T05:27:26.511Z,99.99
2017-09-13T05:28:36.794Z,99.99
2017-09-13T05:29:47.090Z,99.99
2017-09-13T05:30:57.687Z,99.99
2017-09-13T05:32:07.968Z,99.99
2017-09-13T05:33:17.899Z,99.99
2017-09-13T05:34:28.146Z,99.99
2017-09-13T05:35:38.094Z,99.99
2017-09-13T05:36:48.734Z,99.99
2017-09-13T05:37:58.345Z,99.99
2017-09-13T05:39:08.589Z,99.99
2017-09-13T05:40:18.533Z,99.99
2017-09-13T05:41:28.478Z,99.99
2017-09-13T05:42:38.706Z,99.99
2017-09-13T05:43:48.986Z,99.99
2017-09-13T05:44:59.253Z,99.99
2017-09-13T05:46:09.239Z,99.99
2017-09-13T05:47:19.199Z,99.99
2017-09-13T05:48:29.805Z,99.99
2017-09-13T05:49:40.065Z,99.99
2017-09-13T05:50:49.700Z,99.99
2017-09-13T05:51:59.949Z,99.99
2017-09-13T05:53:10.207Z,99.99
2017-09-13T05:54:20.502Z,99.99
2017-09-13T05:55:30.444Z,99.99
2017-09-13T05:56:40.695Z,99.99
2017-09-13T05:57:50.350Z,99.99
2017-09-13T05:59:00.632Z,99.99
2017-09-13T06:00:10.600Z,99.99
2017-09-13T06:01:20.853Z,99.99
2017-09-13T06:02:31.123Z,99.99
2017-09-13T06:03:41.378Z,99.99
2017-09-13T06:04:51.698Z,99.99
2017-09-13T06:06:02.258Z,99.99
2017-09-13T06:07:12.523Z,99.99
2017-09-13T06:08:22.801Z,99.99
2017-09-13T06:09:33.071Z,99.99
2017-09-13T06:10:42.690Z,99.99
2017-09-13T06:11:53.284Z,99.99
2017-09-13T06:13:02.914Z,99.99
2017-09-13T06:14:13.169Z,99.99
2017-09-13T06:15:23.434Z,99.99
2017-09-13T06:16:33.750Z,99.99
2017-09-13T06:17:44.308Z,99.99
2017-09-13T06:18:54.569Z,99.99
2017-09-13T06:20:04.816Z,99.99
2017-09-13T06:21:14.777Z,99.99
2017-09-13T06:22:24.111Z,99.99
2017-09-13T06:23:34.666Z,99.99
2017-09-13T06:24:44.929Z,99.99
2017-09-13T06:25:54.883Z,99.99
2017-09-13T06:27:05.161Z,99.99
2017-09-13T06:28:15.422Z,99.99
2017-09-13T06:29:26.052Z,99.99
2017-09-13T06:30:36.310Z,99.99
2017-09-13T06:31:46.571Z,99.99
2017-09-13T06:32:56.546Z,99.99
2017-09-13T06:34:06.499Z,99.99
2017-09-13T06:35:17.171Z,99.99
2017-09-13T06:36:26.805Z,99.99
2017-09-13T06:37:37.057Z,99.99
2017-09-13T06:38:47.078Z,99.99
2017-09-13T06:39:57.342Z,99.99
2017-09-13T06:41:07.950Z,99.99
2017-09-13T06:42:18.227Z,99.99
2017-09-13T06:43:27.844Z,99.99
2017-09-13T06:44:38.107Z,99.99
2017-09-13T06:45:48.370Z,99.99
2017-09-13T06:46:58.982Z,99.99
2017-09-13T06:48:08.924Z,99.99
2017-09-13T06:49:19.186Z,99.99
2017-09-13T06:50:29.443Z,99.99
2017-09-13T06:51:39.718Z,99.99
2017-09-13T06:52:50.330Z,99.99
2017-09-13T06:54:00.594Z,99.99
2017-09-13T06:55:10.843Z,99.99
2017-09-13T06:56:21.101Z,99.99
2017-09-13T06:57:31.047Z,99.99
2017-09-13T06:58:41.602Z,99.99
2017-09-13T06:59:51.551Z,99.99
2017-09-13T07:01:01.843Z,99.99
2017-09-13T07:02:12.106Z,99.99
2017-09-13T07:03:22.357Z,99.99
2017-09-13T07:04:32.939Z,99.99
2017-09-13T07:05:43.198Z,99.99
2017-09-13T07:06:53.458Z,99.99
2017-09-13T07:08:03.765Z,99.99
2017-09-13T07:09:14.014Z,99.99
2017-09-13T07:10:24.610Z,99.99
2017-09-13T07:11:34.886Z,99.99
2017-09-13T07:12:45.186Z,99.99
2017-09-13T07:13:55.453Z,99.99
2017-09-13T07:15:05.720Z,99.99
2017-09-13T07:16:16.058Z,99.99
2017-09-13T07:17:26.596Z,99.99
2017-09-13T07:18:36.873Z,99.99
2017-09-13T07:19:46.813Z,99.99
2017-09-13T07:20:57.098Z,99.99
2017-09-13T07:22:07.705Z,99.99
2017-09-13T07:23:17.967Z,99.99
2017-09-13T07:24:28.228Z,99.99
2017-09-13T07:25:38.499Z,99.99
2017-09-13T07:26:48.762Z,99.99
2017-09-13T07:27:59.057Z,99.99
2017-09-13T07:29:09.003Z,99.99
2017-09-13T07:30:19.287Z,99.99
2017-09-13T07:31:29.554Z,99.99
2017-09-13T07:32:39.495Z,99.99
2017-09-13T07:33:50.117Z,99.99
2017-09-13T07:35:00.074Z,99.99
2017-09-13T07:36:10.322Z,99.99
2017-09-13T07:37:20.575Z,99.99
2017-09-13T07:38:30.839Z,99.99
2017-09-13T07:39:41.466Z,99.99
2017-09-13T07:40:51.089Z,99.99
2017-09-13T07:42:01.364Z,99.99
2017-09-13T07:43:11.617Z,99.99
2017-09-13T07:44:22.101Z,99.99
2017-09-13T07:45:32.685Z,99.99
2017-09-13T07:46:42.630Z,99.99
2017-09-13T07:47:52.911Z,99.99
2017-09-13T07:49:03.170Z,99.99
2017-09-13T07:50:13.433Z,99.99
2017-09-13T07:51:23.721Z,99.99
2017-09-13T07:52:34.010Z,99.99
2017-09-13T07:53:43.956Z,99.99
2017-09-13T07:54:53.890Z,99.99
2017-09-13T07:56:03.826Z,99.99
2017-09-13T07:57:14.070Z,99.99
2017-09-13T07:58:24.021Z,99.99
2017-09-13T07:59:34.271Z,99.99
2017-09-13T08:00:44.525Z,99.99
2017-09-13T08:01:54.790Z,99.99
2017-09-13T08:03:05.109Z,99.99
2017-09-13T08:04:15.369Z,99.99
2017-09-13T08:05:25.306Z,99.99
2017-09-13T08:06:35.251Z,99.99
2017-09-13T08:07:45.193Z,99.99
2017-09-13T08:08:55.744Z,99.99
2017-09-13T08:10:06.010Z,99.99
2017-09-13T08:11:16.299Z,99.99
2017-09-13T08:12:25.925Z,99.99
2017-09-13T08:13:35.881Z,99.99
2017-09-13T08:14:46.179Z,99.99
2017-09-13T08:15:56.444Z,99.99
2017-09-13T08:17:06.067Z,99.99
2017-09-13T08:18:16.318Z,99.99
2017-09-13T08:19:26.290Z,99.99
2017-09-13T08:20:36.892Z,99.99
2017-09-13T08:21:47.192Z,99.99
2017-09-13T08:22:57.486Z,99.99
2017-09-13T08:24:07.760Z,99.99
2017-09-13T08:25:18.032Z,99.99
2017-09-13T08:26:28.654Z,99.99
2017-09-13T08:27:39.004Z,99.99
2017-09-13T08:28:49.349Z,99.99
2017-09-13T08:29:59.606Z,99.99
2017-09-13T08:31:09.551Z,99.99
2017-09-13T08:32:19.890Z,99.99
2017-09-13T08:33:29.831Z,99.99
2017-09-13T08:34:40.096Z,99.99
2017-09-13T08:35:50.370Z,99.99
2017-09-13T08:37:00.629Z,99.99
2017-09-13T08:38:11.274Z,99.99
2017-09-13T08:39:21.538Z,99.99
2017-09-13T08:40:31.872Z,99.99
2017-09-13T08:41:42.135Z,99.99
2017-09-13T08:42:52.075Z,99.99
2017-09-13T08:44:02.682Z,99.99
2017-09-13T08:45:12.966Z,99.99
2017-09-13T08:46:22.953Z,99.99
2017-09-13T08:47:33.235Z,99.99
2017-09-13T08:48:42.890Z,99.99
2017-09-13T08:49:52.923Z,99.99
2017-09-13T08:51:03.209Z,99.99
2017-09-13T08:52:13.461Z,99.99
2017-09-13T08:53:23.437Z,99.99
2017-09-13T08:54:33.730Z,99.99
2017-09-13T08:55:44.374Z,99.99
2017-09-13T08:56:54.662Z,99.99
2017-09-13T08:58:04.967Z,99.99
2017-09-13T08:59:15.226Z,99.99
2017-09-13T09:00:25.498Z,99.99
2017-09-13T09:01:35.768Z,99.99
2017-09-13T09:02:45.741Z,99.99
2017-09-13T09:03:55.742Z,99.99
2017-09-13T09:05:06.015Z,99.99
2017-09-13T09:06:15.966Z,99.99
2017-09-13T09:07:26.298Z,99.99
2017-09-13T09:08:36.275Z,99.99
2017-09-13T09:09:46.568Z,99.99
2017-09-13T09:10:56.908Z,99.99
2017-09-13T09:12:07.210Z,99.99
2017-09-13T09:13:17.869Z,99.99
2017-09-13T09:14:28.127Z,99.99
2017-09-13T09:15:38.391Z,99.99
2017-09-13T09:16:48.672Z,99.99
2017-09-13T09:17:58.940Z,99.99
2017-09-13T09:19:09.550Z,99.99
2017-09-13T09:20:19.880Z,99.99
2017-09-13T09:21:29.556Z,99.99
2017-09-13T09:22:39.510Z,99.99
2017-09-13T09:23:49.778Z,99.99
2017-09-13T09:25:00.015Z,99.99
2017-09-13T09:26:10.286Z,99.99
2017-09-13T09:27:20.542Z,99.99
2017-09-13T09:28:30.518Z,99.99
2017-09-13T09:29:40.796Z,99.99
2017-09-13T09:30:50.776Z,99.99
2017-09-13T09:32:01.066Z,99.99
2017-09-13T09:33:11.334Z,99.99
2017-09-13T09:34:21.601Z,99.99
2017-09-13T09:35:31.883Z,99.99
2017-09-13T09:36:42.458Z,99.99
2017-09-13T09:37:52.705Z,99.99
2017-09-13T09:39:02.966Z,99.99
2017-09-13T09:40:13.488Z,99.99
2017-09-13T09:41:23.738Z,99.99
2017-09-13T09:42:34.296Z,99.99
2017-09-13T09:43:44.597Z,99.99
2017-09-13T09:44:54.886Z,99.99
2017-09-13T09:46:04.855Z,99.99
2017-09-13T09:47:15.120Z,99.99
2017-09-13T09:48:25.370Z,99.99
2017-09-13T09:49:35.634Z,99.99
2017-09-13T09:50:45.569Z,99.99
2017-09-13T09:51:55.827Z,99.99
2017-09-13T09:53:06.092Z,99.99
2017-09-13T09:54:16.327Z,99.99
2017-09-13T09:55:26.585Z,99.99
2017-09-13T09:56:36.540Z,99.99
2017-09-13T09:57:46.820Z,99.99
2017-09-13T09:58:57.106Z,99.99
2017-09-13T10:00:07.729Z,99.99
2017-09-13T10:01:18.076Z,99.99
2017-09-13T10:02:28.013Z,99.99
2017-09-13T10:03:38.306Z,99.99
2017-09-13T10:04:48.567Z,99.99
2017-09-13T10:05:59.195Z,99.99
2017-09-13T10:07:09.448Z,99.99
2017-09-13T10:08:19.704Z,99.99
2017-09-13T10:09:29.972Z,99.99
2017-09-13T10:10:39.601Z,99.99
2017-09-13T10:11:50.215Z,99.99
2017-09-13T10:13:00.515Z,99.99
2017-09-13T10:14:10.805Z,99.99
2017-09-13T10:15:21.067Z,99.99
2017-09-13T10:16:31.346Z,99.99
2017-09-13T10:17:42.001Z,99.99
2017-09-13T10:18:52.284Z,99.99
2017-09-13T10:20:02.558Z,99.99
2017-09-13T10:21:11.882Z,99.99
2017-09-13T10:22:22.145Z,99.99
2017-09-13T10:23:32.728Z,99.99
2017-09-13T10:24:42.681Z,99.99
2017-09-13T10:25:52.941Z,99.99
2017-09-13T10:27:03.240Z,99.99
2017-09-13T10:28:13.504Z,99.99
2017-09-13T10:29:23.439Z,99.99
2017-09-13T10:30:33.375Z,99.99
2017-09-13T10:31:43.326Z,99.99
2017-09-13T10:32:52.948Z,99.99
2017-09-13T10:34:02.910Z,99.99
2017-09-13T10:35:13.472Z,99.99
2017-09-13T10:36:23.434Z,99.99
2017-09-13T10:37:33.379Z,99.99
2017-09-13T10:38:43.650Z,99.99
2017-09-13T10:39:53.925Z,99.99
2017-09-13T10:41:04.502Z,98.67
2017-09-13T10:42:14.795Z,99.82
2017-09-13T10:43:24.438Z,98.67
2017-09-13T10:44:33.762Z,99.99
2017-09-13T10:45:44.045Z,99.15
2017-09-13T10:46:54.701Z,99.99
2017-09-13T10:48:04.660Z,99.99
2017-09-13T10:49:14.609Z,99.99
2017-09-13T10:50:24.967Z,99.99
2017-09-13T10:51:35.240Z,98.52
2017-09-13T10:52:45.216Z,98.71
2017-09-13T10:53:55.169Z,99.99
2017-09-13T10:55:04.792Z,99.29
2017-09-13T10:56:14.741Z,99.58
2017-09-13T10:57:25.011Z,99.48
2017-09-13T10:58:35.571Z,97.09
2017-09-13T10:59:45.845Z,97.52
2017-09-13T11:00:56.118Z,95.31
2017-09-13T11:02:06.404Z,95.31
2017-09-13T11:03:16.672Z,93.83
2017-09-13T11:04:27.230Z,91.77
2017-09-13T11:05:37.489Z,92.15
2017-09-13T11:06:47.738Z,90.37
2017-09-13T11:07:57.707Z,90.56
2017-09-13T11:09:07.656Z,90.52
2017-09-13T11:10:18.227Z,88.98
2017-09-13T11:11:28.208Z,88.98
2017-09-13T11:12:38.524Z,89.32
2017-09-13T11:13:48.813Z,87.11
2017-09-13T11:14:59.102Z,85.91
2017-09-13T11:16:09.752Z,85.71
2017-09-13T11:17:20.041Z,85.33
2017-09-13T11:18:29.984Z,84.99
2017-09-13T11:19:39.946Z,85.08
2017-09-13T11:20:50.209Z,85.33
2017-09-13T11:22:00.789Z,84.37
2017-09-13T11:23:10.764Z,84.95
2017-09-13T11:24:21.043Z,84.18
2017-09-13T11:25:31.312Z,84.56
2017-09-13T11:26:41.279Z,83.31
2017-09-13T11:27:51.892Z,83.6
2017-09-13T11:29:02.156Z,82.4
2017-09-13T11:30:12.409Z,82.16
2017-09-13T11:31:22.665Z,82.54
2017-09-13T11:32:32.940Z,82.54
2017-09-13T11:33:43.193Z,82.3
2017-09-13T11:34:53.460Z,81.43
2017-09-13T11:36:03.110Z,81.82
2017-09-13T11:37:13.387Z,81.67
2017-09-13T11:38:23.012Z,81.86
2017-09-13T11:39:33.634Z,80.04
2017-09-13T11:40:43.902Z,80.71
2017-09-13T11:41:53.524Z,80.51
2017-09-13T11:43:03.476Z,80.13
2017-09-13T11:44:13.112Z,81.19
2017-09-13T11:45:23.691Z,80.8
2017-09-13T11:46:33.968Z,81.72
2017-09-13T11:47:44.242Z,81.63
2017-09-13T11:48:54.184Z,81.82
2017-09-13T11:50:04.460Z,80.9
2017-09-13T11:51:14.761Z,82.15
2017-09-13T11:52:25.022Z,81.19
2017-09-13T11:53:35.275Z,82.24
2017-09-13T11:54:45.238Z,83.11
2017-09-13T11:55:55.538Z,83.01
2017-09-13T11:57:06.158Z,84.89
2017-09-13T11:58:16.430Z,85.42
2017-09-13T11:59:26.388Z,87.35
2017-09-13T12:00:36.655Z,87.73
2017-09-13T12:01:46.626Z,87.54
2017-09-13T12:02:56.611Z,88.02
2017-09-13T12:04:06.914Z,87.92
2017-09-13T12:05:16.872Z,87.54
2017-09-13T12:06:26.837Z,87.54
2017-09-13T12:07:37.103Z,87.44
2017-09-13T12:08:47.723Z,87.05
2017-09-13T12:09:58.016Z,86.33
2017-09-13T12:11:08.306Z,86.91
2017-09-13T12:12:18.596Z,87.68
2017-09-13T12:13:28.902Z,88.16
2017-09-13T12:14:39.778Z,88.45
2017-09-13T12:15:49.731Z,89.22
2017-09-13T12:16:59.716Z,89.84
2017-09-13T12:18:09.363Z,89.55
2017-09-13T12:19:19.637Z,89.17
2017-09-13T12:20:30.138Z,90.42
2017-09-13T12:21:40.152Z,89.36
2017-09-13T12:22:50.537Z,90.03
2017-09-13T12:24:00.873Z,90.18
2017-09-13T12:25:10.838Z,90.66
2017-09-13T12:26:21.392Z,90.66
2017-09-13T12:27:31.671Z,89.94
2017-09-13T12:28:41.963Z,89.32
2017-09-13T12:29:52.282Z,88.74
2017-09-13T12:31:01.906Z,89.22
2017-09-13T12:32:12.415Z,89.51
2017-09-13T12:33:22.373Z,89.12
2017-09-13T12:34:32.684Z,89.12
2017-09-13T12:35:42.971Z,88.65
2017-09-13T12:36:53.252Z,88.65
2017-09-13T12:38:03.810Z,87.92
2017-09-13T12:39:13.765Z,86.77
2017-09-13T12:40:24.039Z,87.25
2017-09-13T12:41:34.368Z,86.48
2017-09-13T12:42:44.323Z,85.95
2017-09-13T12:43:55.116Z,86.33
2017-09-13T12:45:05.097Z,86.81
2017-09-13T12:46:15.417Z,84.8
2017-09-13T12:47:25.768Z,85.28
2017-09-13T12:48:36.081Z,84.89
2017-09-13T12:49:46.651Z,84.99
2017-09-13T12:50:56.621Z,84.7
2017-09-13T12:52:06.594Z,83.78
2017-09-13T12:53:16.874Z,84.36
2017-09-13T12:54:27.172Z,84.03
2017-09-13T12:55:37.478Z,83.16
2017-09-13T12:56:47.777Z,83.26
2017-09-13T12:57:58.053Z,83.16
2017-09-13T12:59:08.330Z,82.4
2017-09-13T13:00:18.636Z,82.63
2017-09-13T13:01:28.925Z,82.15
2017-09-13T13:02:39.285Z,82.15
2017-09-13T13:03:49.579Z,82.34
2017-09-13T13:04:59.882Z,81.57
2017-09-13T13:06:10.204Z,82.24
2017-09-13T13:07:20.397Z,82.05
2017-09-13T13:08:30.696Z,82.82
2017-09-13T13:09:41.034Z,82.24
2017-09-13T13:10:51.017Z,82.73
2017-09-13T13:12:00.695Z,82.15
2017-09-13T13:13:11.275Z,82.19
2017-09-13T13:14:21.590Z,82.63
2017-09-13T13:15:31.860Z,81.52
2017-09-13T13:16:41.827Z,81.04
2017-09-13T13:17:52.153Z,81.04
2017-09-13T13:19:02.371Z,79.79
2017-09-13T13:20:12.647Z,79.11
2017-09-13T13:21:22.924Z,78.73
2017-09-13T13:22:32.895Z,79.5
2017-09-13T13:23:42.540Z,79.53
2017-09-13T13:24:53.087Z,78.96
2017-09-13T13:26:03.047Z,78.09
2017-09-13T13:27:13.338Z,78
2017-09-13T13:28:23.660Z,78.19
2017-09-13T13:29:33.626Z,77.61
2017-09-13T13:30:43.854Z,76.5
2017-09-13T13:31:54.138Z,76.11
2017-09-13T13:33:04.400Z,76.59
2017-09-13T13:34:14.680Z,75.54
2017-09-13T13:35:24.972Z,75.82
2017-09-13T13:36:35.177Z,74.86
2017-09-13T13:37:45.119Z,74.38
2017-09-13T13:38:55.390Z,74.51
2017-09-13T13:40:05.665Z,73.74
2017-09-13T13:41:15.934Z,72.59
2017-09-13T13:42:26.441Z,72.2
2017-09-13T13:43:36.732Z,71.91
2017-09-13T13:44:46.692Z,70.09
2017-09-13T13:45:56.965Z,69.89
2017-09-13T13:47:07.235Z,68.74
2017-09-13T13:48:17.441Z,69.7
2017-09-13T13:49:27.705Z,69.6
2017-09-13T13:50:37.676Z,68.44
2017-09-13T13:51:47.947Z,68.16
2017-09-13T13:52:58.212Z,68.44
2017-09-13T13:54:08.979Z,67.81
2017-09-13T13:55:18.924Z,67.23
2017-09-13T13:56:28.873Z,66.65
2017-09-13T13:57:39.153Z,67.71
2017-09-13T13:58:49.104Z,68.35
2017-09-13T13:59:59.617Z,68.26
2017-09-13T14:01:09.876Z,67.58
2017-09-13T14:02:19.842Z,67.39
2017-09-13T14:03:29.470Z,67.49
2017-09-13T14:04:39.128Z,67.29
2017-09-13T14:05:49.653Z,67.29
2017-09-13T14:06:59.605Z,66.85
2017-09-13T14:08:09.889Z,66.65
2017-09-13T14:09:19.873Z,66.24
2017-09-13T14:10:29.524Z,65.46
2017-09-13T14:11:39.721Z,66.33
2017-09-13T14:12:49.521Z,66.42
2017-09-13T14:13:59.495Z,66.33
2017-09-13T14:15:09.773Z,66.14
2017-09-13T14:16:19.728Z,65.94
2017-09-13T14:17:30.243Z,66.62
2017-09-13T14:18:40.225Z,64.89
2017-09-13T14:19:50.508Z,65.37
2017-09-13T14:21:00.479Z,64.95
2017-09-13T14:22:10.747Z,65.14
2017-09-13T14:23:21.258Z,66.01
2017-09-13T14:24:31.207Z,66.3
2017-09-13T14:25:41.484Z,65.08
2017-09-13T14:26:51.487Z,65.08
2017-09-13T14:28:01.438Z,64.98
2017-09-13T14:29:11.668Z,65.56
2017-09-13T14:30:22.010Z,65.17
2017-09-13T14:31:32.276Z,65.94
2017-09-13T14:32:42.578Z,66.14
2017-09-13T14:33:52.902Z,66.04
2017-09-13T14:35:03.466Z,65.75
2017-09-13T14:36:13.218Z,65.94
2017-09-13T14:37:23.169Z,66.42
2017-09-13T14:38:33.448Z,66.52
2017-09-13T14:39:43.718Z,67
2017-09-13T14:40:54.242Z,66.71
2017-09-13T14:42:04.502Z,67.97
2017-09-13T14:43:14.478Z,67.93
2017-09-13T14:44:24.792Z,68.41
2017-09-13T14:45:35.081Z,69.09
2017-09-13T14:46:45.603Z,71.01
2017-09-13T14:47:55.871Z,72.03
2017-09-13T14:49:06.126Z,72.77
2017-09-13T14:50:16.086Z,73.35
2017-09-13T14:51:26.371Z,73.54
2017-09-13T14:52:36.933Z,74.4
2017-09-13T14:53:47.193Z,74.08
2017-09-13T14:54:56.828Z,74.75
2017-09-13T14:56:07.081Z,75.62
2017-09-13T14:57:17.026Z,76.09
2017-09-13T14:58:27.235Z,76.48
2017-09-13T14:59:37.175Z,77.69
2017-09-13T15:00:47.134Z,80.28
2017-09-13T15:01:57.077Z,81.92
2017-09-13T15:03:07.331Z,84.47
2017-09-13T15:04:17.583Z,86.19
2017-09-13T15:05:27.844Z,89.32